createdAt,value
2022-07-28T00:01:48.630Z,40.63
2022-07-28T00:04:20.138Z,39.38
2022-07-28T00:06:54.588Z,39.39
2022-07-28T00:12:34.674Z,39.72
2022-07-28T00:15:06.299Z,40.64
2022-07-28T00:17:37.259Z,39.26
2022-07-28T00:20:08.933Z,39.08
2022-07-28T00:22:45.752Z,39.18
2022-07-28T00:25:16.320Z,39.32
2022-07-28T00:27:53.002Z,39.58
2022-07-28T00:30:23.075Z,38.96
2022-07-28T00:32:55.545Z,38.63
2022-07-28T00:35:30.814Z,38.88
2022-07-28T00:37:57.762Z,39.04
2022-07-28T00:40:29.676Z,39.09
2022-07-28T00:43:00.231Z,39.91
2022-07-28T00:45:33.236Z,38.96
2022-07-28T00:48:06.210Z,38.80
2022-07-28T00:50:40.802Z,39.03
2022-07-28T00:53:11.719Z,39.03
2022-07-28T00:56:03.388Z,39.76
2022-07-28T00:58:14.404Z,39.00
2022-07-28T01:00:48.019Z,38.59
2022-07-28T01:03:18.245Z,38.81
2022-07-28T01:05:56.871Z,38.83
2022-07-28T01:09:02.337Z,38.76
2022-07-28T01:11:47.037Z,38.93
2022-07-28T01:14:28.850Z,38.94
2022-07-28T01:17:28.425Z,38.89
2022-07-28T01:20:16.459Z,38.93
2022-07-28T01:23:11.622Z,38.87
2022-07-28T01:29:30.371Z,38.68
2022-07-28T01:32:08.503Z,38.84
2022-07-28T01:37:59.982Z,39.28
2022-07-28T01:40:31.913Z,38.65
2022-07-28T01:43:02.482Z,38.41
2022-07-28T01:45:33.942Z,38.73
2022-07-28T01:48:04.833Z,39.06
2022-07-28T01:50:38.871Z,39.01
2022-07-28T01:53:12.008Z,38.65
2022-07-28T01:59:08.348Z,38.46
2022-07-28T02:02:13.377Z,38.86
2022-07-28T02:04:58.254Z,38.66
2022-07-28T02:11:59.371Z,38.14
2022-07-28T02:14:43.491Z,38.28
2022-07-28T02:24:11.873Z,38.87
2022-07-28T02:29:52.151Z,39.39
2022-07-28T02:45:43.820Z,39.92
2022-07-28T02:54:53.686Z,40.21
2022-07-28T03:07:23.067Z,41.14
2022-07-28T03:13:09.068Z,40.39
2022-07-28T03:22:06.179Z,40.12
2022-07-28T03:24:42.315Z,40.25
2022-07-28T03:27:33.572Z,40.30
2022-07-28T03:30:06.659Z,40.24
2022-07-28T03:32:38.671Z,40.26
2022-07-28T03:35:09.418Z,40.91
2022-07-28T03:37:58.472Z,40.42
2022-07-28T03:40:32.753Z,40.20
2022-07-28T03:43:05.091Z,40.24
2022-07-28T03:45:36.474Z,40.38
2022-07-28T03:48:10.854Z,40.48
2022-07-28T03:50:43.674Z,41.45
2022-07-28T03:53:19.205Z,40.93
2022-07-28T03:55:51.311Z,40.20
2022-07-28T03:58:22.592Z,40.07
2022-07-28T04:00:54.533Z,40.06
2022-07-28T04:03:42.430Z,40.09
2022-07-28T04:05:57.837Z,41.49
2022-07-28T04:08:28.420Z,41.49
2022-07-28T04:10:59.526Z,40.96
2022-07-28T04:13:34.782Z,40.54
2022-07-28T04:16:11.931Z,40.09
2022-07-28T04:18:43.223Z,40.03
2022-07-28T04:21:13.454Z,40.08
2022-07-28T04:23:43.452Z,40.35
2022-07-28T04:26:13.528Z,41.26
2022-07-28T04:28:44.964Z,40.96
2022-07-28T04:31:14.916Z,41.04
2022-07-28T04:33:45.504Z,40.93
2022-07-28T04:36:18.147Z,40.54
2022-07-28T04:38:48.231Z,41.24
2022-07-28T04:41:18.240Z,40.81
2022-07-28T04:43:49.039Z,40.47
2022-07-28T04:46:20.918Z,40.33
2022-07-28T04:48:51.268Z,40.27
2022-07-28T04:51:22.890Z,40.37
2022-07-28T04:53:54.265Z,40.51
2022-07-28T04:56:24.875Z,41.45
2022-07-28T04:58:57.167Z,40.92
2022-07-28T05:01:27.249Z,40.39
2022-07-28T05:03:58.899Z,40.27
2022-07-28T05:06:29.411Z,40.29
2022-07-28T05:08:59.923Z,40.29
2022-07-28T05:11:31.260Z,40.38
2022-07-28T05:14:01.500Z,41.22
2022-07-28T05:16:33.196Z,40.99
2022-07-28T05:19:06.047Z,41.03
2022-07-28T05:21:36.714Z,40.84
2022-07-28T05:24:07.439Z,40.53
2022-07-28T05:26:41.282Z,41.19
2022-07-28T05:29:12.606Z,40.88
2022-07-28T05:31:43.698Z,40.57
2022-07-28T05:34:15.350Z,40.46
2022-07-28T05:36:46.743Z,40.49
2022-07-28T05:39:17.613Z,40.64
2022-07-28T05:41:47.610Z,40.75
2022-07-28T05:44:17.894Z,41.25
2022-07-28T05:46:48.357Z,41.07
2022-07-28T05:49:18.390Z,40.59
2022-07-28T05:51:48.467Z,40.24
2022-07-28T05:54:18.443Z,40.26
2022-07-28T05:56:50.412Z,40.22
2022-07-28T05:59:21.007Z,41.27
2022-07-28T06:01:51.272Z,41.06
2022-07-28T06:04:27.170Z,41.09
2022-07-28T06:06:55.082Z,41.09
2022-07-28T06:09:25.245Z,41.09
2022-07-28T06:11:55.654Z,41.26
2022-07-28T06:14:26.078Z,41.28
2022-07-28T06:16:58.188Z,40.72
2022-07-28T06:19:28.252Z,40.50
2022-07-28T06:21:58.307Z,40.50
2022-07-28T06:24:28.691Z,40.50
2022-07-28T06:26:58.795Z,40.48
2022-07-28T06:29:28.981Z,40.32
2022-07-28T06:32:02.176Z,41.31
2022-07-28T06:34:33.007Z,41.15
2022-07-28T06:37:02.934Z,41.20
2022-07-28T06:39:33.629Z,41.11
2022-07-28T06:42:03.645Z,40.99
2022-07-28T06:44:57.455Z,41.51
2022-07-28T06:47:06.402Z,41.00
2022-07-28T06:49:38.536Z,40.62
2022-07-28T06:52:11.014Z,40.62
2022-07-28T06:54:48.913Z,40.63
2022-07-28T06:57:17.863Z,40.63
2022-07-28T06:59:48.714Z,40.62
2022-07-28T07:02:19.328Z,40.39
2022-07-28T07:04:51.188Z,41.41
2022-07-28T07:07:21.331Z,41.20
2022-07-28T07:09:52.777Z,41.25
2022-07-28T07:12:26.090Z,41.18
2022-07-28T07:14:56.120Z,41.10
2022-07-28T07:17:26.148Z,41.47
2022-07-28T07:19:56.135Z,41.37
2022-07-28T07:22:26.220Z,40.73
2022-07-28T07:24:57.650Z,40.60
2022-07-28T07:27:27.601Z,40.62
2022-07-28T07:29:57.725Z,40.56
2022-07-28T07:32:28.089Z,40.58
2022-07-28T07:34:58.309Z,40.80
2022-07-28T07:37:28.771Z,40.82
2022-07-28T07:39:59.073Z,41.24
2022-07-28T07:42:29.562Z,41.16
2022-07-28T07:44:59.817Z,41.24
2022-07-28T07:47:31.436Z,41.14
2022-07-28T07:50:04.113Z,41.09
2022-07-28T07:52:34.570Z,41.52
2022-07-28T07:55:08.651Z,41.36
2022-07-28T07:57:39.344Z,40.74
2022-07-28T08:00:28.979Z,40.63
2022-07-28T08:02:44.897Z,40.65
2022-07-28T08:05:14.752Z,40.67
2022-07-28T08:07:45.107Z,40.64
2022-07-28T08:10:20.132Z,40.79
2022-07-28T08:12:52.486Z,40.72
2022-07-28T08:15:23.689Z,41.33
2022-07-28T08:17:54.733Z,41.26
2022-07-28T08:20:24.984Z,41.28
2022-07-28T08:22:56.953Z,41.18
2022-07-28T08:25:30.219Z,40.83
2022-07-28T08:28:00.282Z,41.64
2022-07-28T08:30:32.986Z,41.45
2022-07-28T08:33:03.389Z,41.04
2022-07-28T08:35:35.329Z,40.74
2022-07-28T08:38:09.353Z,40.77
2022-07-28T08:40:40.727Z,40.76
2022-07-28T08:43:19.785Z,40.74
2022-07-28T08:45:53.706Z,40.84
2022-07-28T08:48:24.449Z,41.25
2022-07-28T08:50:54.638Z,41.37
2022-07-28T08:53:24.816Z,41.34
2022-07-28T08:55:58.096Z,41.34
2022-07-28T08:58:31.596Z,41.23
2022-07-28T09:01:01.954Z,40.81
2022-07-28T09:03:32.235Z,41.69
2022-07-28T09:06:02.731Z,41.56
2022-07-28T09:08:34.364Z,41.51
2022-07-28T09:11:06.413Z,41.48
2022-07-28T09:13:38.257Z,41.31
2022-07-28T09:16:09.778Z,40.84
2022-07-28T09:18:41.049Z,41.88
2022-07-28T09:21:21.028Z,41.25
2022-07-28T09:24:02.344Z,41.04
2022-07-28T09:26:37.026Z,40.98
2022-07-28T09:29:48.708Z,40.87
2022-07-28T09:35:24.880Z,41.08
2022-07-28T09:38:10.133Z,41.13
2022-07-28T09:40:52.417Z,41.50
2022-07-28T09:46:22.554Z,41.49
2022-07-28T09:49:01.664Z,41.42
2022-07-28T09:51:49.009Z,41.31
2022-07-28T09:54:30.146Z,40.67
2022-07-28T10:03:05.744Z,41.59
2022-07-28T10:05:53.478Z,41.46
2022-07-28T10:08:20.317Z,41.37
2022-07-28T10:11:13.682Z,41.00
2022-07-28T10:14:05.204Z,41.66
2022-07-28T10:16:44.925Z,41.69
2022-07-28T10:22:40.930Z,41.11
2022-07-28T10:25:13.124Z,41.08
2022-07-28T10:27:47.117Z,41.10
2022-07-28T10:30:17.346Z,41.21
2022-07-28T10:32:47.901Z,41.25
2022-07-28T10:35:19.065Z,40.73
2022-07-28T10:37:56.747Z,41.81
2022-07-28T10:40:31.475Z,41.65
2022-07-28T10:43:01.987Z,41.59
2022-07-28T10:45:55.130Z,41.55
2022-07-28T10:48:09.347Z,41.47
2022-07-28T10:50:42.330Z,41.40
2022-07-28T10:53:13.228Z,40.74
2022-07-28T10:56:33.798Z,41.84
2022-07-28T10:59:14.296Z,41.74
2022-07-28T11:01:50.194Z,41.71
2022-07-28T11:04:48.914Z,41.57
2022-07-28T11:07:19.543Z,41.50
2022-07-28T11:12:51.818Z,41.92
2022-07-28T11:15:35.883Z,41.82
2022-07-28T11:18:11.226Z,41.51
2022-07-28T11:21:00.545Z,41.15
2022-07-28T11:23:46.732Z,41.16
2022-07-28T11:26:28.461Z,41.17
2022-07-28T11:29:11.422Z,41.14
2022-07-28T11:31:50.727Z,41.23
2022-07-28T11:34:22.661Z,41.30
2022-07-28T11:37:03.989Z,41.31
2022-07-28T11:39:42.974Z,41.32
2022-07-28T11:42:28.302Z,41.32
2022-07-28T11:44:58.946Z,41.31
2022-07-28T11:47:32.716Z,41.30
2022-07-28T11:50:16.974Z,41.31
2022-07-28T11:53:00.151Z,41.30
2022-07-28T11:55:55.294Z,40.70
2022-07-28T11:58:07.071Z,41.75
2022-07-28T12:00:41.125Z,41.69
2022-07-28T12:03:15.794Z,41.68
2022-07-28T12:05:51.389Z,41.59
2022-07-28T12:08:21.860Z,41.52
2022-07-28T12:10:54.892Z,41.50
2022-07-28T12:13:28.898Z,41.46
2022-07-28T12:16:02.251Z,41.46
2022-07-28T12:18:33.205Z,41.43
2022-07-28T12:21:08.492Z,40.75
2022-07-28T12:23:49.277Z,41.86
2022-07-28T12:26:14.385Z,41.75
2022-07-28T12:28:47.213Z,41.47
2022-07-28T12:31:20.231Z,41.20
2022-07-28T12:33:53.671Z,41.21
2022-07-28T12:36:24.972Z,41.21
2022-07-28T12:38:54.870Z,41.19
2022-07-28T12:41:25.156Z,41.25
2022-07-28T12:43:56.833Z,41.36
2022-07-28T12:46:27.437Z,41.00
2022-07-28T12:48:59.610Z,41.88
2022-07-28T12:51:44.190Z,41.79
2022-07-28T12:54:15.594Z,41.73
2022-07-28T12:56:50.457Z,41.75
2022-07-28T12:59:20.998Z,41.62
2022-07-28T13:01:57.948Z,41.60
2022-07-28T13:04:49.103Z,40.81
2022-07-28T13:07:28.584Z,40.43
2022-07-28T13:10:11.550Z,41.00
2022-07-28T13:12:44.533Z,42.33
2022-07-28T13:15:18.707Z,41.56
2022-07-28T13:17:54.082Z,41.05
2022-07-28T13:20:27.073Z,42.04
2022-07-28T13:22:58.126Z,41.26
2022-07-28T13:25:28.124Z,40.52
2022-07-28T13:28:01.050Z,40.10
2022-07-28T13:30:31.223Z,39.54
2022-07-28T13:33:02.331Z,40.14
2022-07-28T13:35:34.195Z,40.06
2022-07-28T13:38:06.350Z,40.00
2022-07-28T13:40:56.975Z,39.77
2022-07-28T13:43:36.015Z,39.74
2022-07-28T13:46:00.236Z,39.28
2022-07-28T13:48:35.762Z,40.53
2022-07-28T13:51:12.280Z,39.82
2022-07-28T13:53:44.042Z,39.64
2022-07-28T13:56:13.996Z,39.58
2022-07-28T13:58:46.795Z,39.48
2022-07-28T14:01:19.130Z,40.11
2022-07-28T14:11:38.830Z,39.57
2022-07-28T14:14:24.352Z,39.33
2022-07-28T15:19:21.478Z,40.73
2022-07-28T15:22:40.799Z,40.46
2022-07-28T15:32:09.023Z,40.58
2022-07-28T15:34:41.198Z,40.06
2022-07-28T15:37:47.935Z,39.94
2022-07-28T15:49:38.576Z,40.58
2022-07-28T16:14:15.793Z,40.50
2022-07-28T16:17:11.460Z,40.29
2022-07-28T16:19:50.721Z,40.30
2022-07-28T16:22:27.518Z,40.96
2022-07-28T16:25:08.389Z,40.78
2022-07-28T16:27:42.126Z,40.71
2022-07-28T16:30:25.563Z,40.47
2022-07-28T16:32:56.089Z,40.14
2022-07-28T16:35:59.104Z,40.06
2022-07-28T16:38:32.513Z,40.13
2022-07-28T16:45:42.902Z,40.20
2022-07-28T16:48:14.643Z,40.27
2022-07-28T16:51:01.622Z,40.08
2022-07-28T16:53:32.459Z,39.90
2022-07-28T17:17:53.745Z,39.81
2022-07-28T17:20:35.694Z,39.90
2022-07-28T17:52:07.486Z,39.57
2022-07-28T17:58:28.061Z,39.62
2022-07-28T18:04:31.710Z,40.11
2022-07-28T18:15:49.775Z,39.73
2022-07-28T18:33:00.455Z,40.59
2022-07-28T18:46:05.095Z,39.86
2022-07-28T19:06:17.992Z,39.73
2022-07-28T19:16:26.554Z,40.07
2022-07-28T19:19:00.527Z,39.68
2022-07-28T19:32:04.438Z,39.75
2022-07-28T19:34:34.655Z,39.74
2022-07-28T20:11:07.067Z,40.76
2022-07-28T20:13:38.863Z,40.52
2022-07-28T20:16:19.407Z,40.14
2022-07-28T20:18:52.994Z,39.99
2022-07-28T20:21:38.350Z,39.95
2022-07-28T20:24:13.939Z,40.32
2022-07-28T20:26:47.631Z,41.07
2022-07-28T20:29:24.275Z,40.71
2022-07-28T20:31:54.008Z,40.33
2022-07-28T20:34:29.941Z,40.14
2022-07-28T20:37:03.754Z,40.22
2022-07-28T20:39:44.908Z,41.00
2022-07-28T20:42:13.298Z,40.72
2022-07-28T20:44:47.409Z,40.32
2022-07-28T20:47:24.025Z,40.18
2022-07-28T20:49:56.029Z,40.16
2022-07-28T20:52:26.078Z,40.64
2022-07-28T20:55:11.519Z,41.07
2022-07-28T20:57:42.859Z,41.28
2022-07-28T21:00:15.909Z,40.53
2022-07-28T21:05:37.449Z,40.56
2022-07-28T21:08:17.164Z,40.76
2022-07-28T21:10:41.801Z,40.76
2022-07-28T21:13:11.672Z,40.50
2022-07-28T21:15:42.954Z,40.33
2022-07-28T21:18:13.092Z,40.28
2022-07-28T21:21:54.353Z,41.56
2022-07-28T21:24:43.184Z,41.56
2022-07-28T21:30:32.609Z,40.30
2022-07-28T21:33:10.715Z,40.46
2022-07-28T21:36:02.451Z,40.97
2022-07-28T21:38:42.356Z,41.86
2022-07-28T21:41:13.146Z,40.76
2022-07-28T21:43:48.694Z,40.36
2022-07-28T21:46:31.731Z,40.28
2022-07-28T21:49:13.716Z,40.86
2022-07-28T21:52:00.011Z,41.76
2022-07-28T21:55:07.714Z,40.58
2022-07-28T21:58:14.633Z,40.21
2022-07-28T22:04:18.749Z,40.40
2022-07-28T22:07:26.706Z,41.37
2022-07-28T22:10:09.820Z,40.47
